sensor_id;sensor_type;location;lat;lon;timestamp;temperature;humidity
19862;DHT22;10093;48.148;8.542;2023-05-20T00:01:08;9.70;99.90
19862;DHT22;10093;48.148;8.542;2023-05-20T00:03:34;9.80;99.90
19862;DHT22;10093;48.148;8.542;2023-05-20T00:05:59;9.90;99.90
19862;DHT22;10093;48.148;8.542;2023-05-20T00:08:25;9.80;99.90
19862;DHT22;10093;48.148;8.542;2023-05-20T00:10:51;10.00;99.90
19862;DHT22;10093;48.148;8.542;2023-05-20T00:13:16;9.90;99.90
19862;DHT22;10093;48.148;8.542;2023-05-20T00:15:42;10.00;99.90
19862;DHT22;10093;48.148;8.542;2023-05-20T00:18:07;10.10;99.90
19862;DHT22;10093;48.148;8.542;2023-05-20T00:20:33;10.30;99.90
19862;DHT22;10093;48.148;8.542;2023-05-20T00:22:59;10.20;99.90
19862;DHT22;10093;48.148;8.542;2023-05-20T00:25:24;10.20;99.90
19862;DHT22;10093;48.148;8.542;2023-05-20T00:27:50;10.30;99.90
19862;DHT22;10093;48.148;8.542;2023-05-20T00:30:16;10.10;99.90
19862;DHT22;10093;48.148;8.542;2023-05-20T00:32:41;9.90;99.90
19862;DHT22;10093;48.148;8.542;2023-05-20T00:35:07;9.80;99.90
19862;DHT22;10093;48.148;8.542;2023-05-20T00:37:33;9.80;99.90
19862;DHT22;10093;48.148;8.542;2023-05-20T00:39:59;9.70;99.90
19862;DHT22;10093;48.148;8.542;2023-05-20T00:42:26;9.70;99.90
19862;DHT22;10093;48.148;8.542;2023-05-20T00:44:54;9.60;99.90
19862;DHT22;10093;48.148;8.542;2023-05-20T00:47:25;9.70;99.90
19862;DHT22;10093;48.148;8.542;2023-05-20T00:49:52;9.90;99.90
19862;DHT22;10093;48.148;8.542;2023-05-20T00:52:18;9.90;99.90
19862;DHT22;10093;48.148;8.542;2023-05-20T00:54:44;9.90;99.90
19862;DHT22;10093;48.148;8.542;2023-05-20T00:57:10;10.00;99.90
19862;DHT22;10093;48.148;8.542;2023-05-20T00:59:37;10.00;99.90
19862;DHT22;10093;48.148;8.542;2023-05-20T01:02:05;10.00;99.90
19862;DHT22;10093;48.148;8.542;2023-05-20T01:04:32;10.00;99.90
19862;DHT22;10093;48.148;8.542;2023-05-20T01:07:00;10.10;99.90
19862;DHT22;10093;48.148;8.542;2023-05-20T01:09:26;9.90;99.90
19862;DHT22;10093;48.148;8.542;2023-05-20T01:12:00;9.90;99.90
19862;DHT22;10093;48.148;8.542;2023-05-20T01:14:34;9.90;99.90
19862;DHT22;10093;48.148;8.542;2023-05-20T01:17:01;9.60;99.90
19862;DHT22;10093;48.148;8.542;2023-05-20T01:19:44;9.50;99.90
19862;DHT22;10093;48.148;8.542;2023-05-20T01:22:10;9.30;99.90
19862;DHT22;10093;48.148;8.542;2023-05-20T01:24:44;9.20;99.90
19862;DHT22;10093;48.148;8.542;2023-05-20T01:27:11;9.20;99.90
19862;DHT22;10093;48.148;8.542;2023-05-20T01:29:38;9.30;99.90
19862;DHT22;10093;48.148;8.542;2023-05-20T01:32:10;9.10;99.90
19862;DHT22;10093;48.148;8.542;2023-05-20T01:34:36;9.20;99.90
19862;DHT22;10093;48.148;8.542;2023-05-20T01:37:04;9.20;99.90
19862;DHT22;10093;48.148;8.542;2023-05-20T01:39:33;9.20;99.90
19862;DHT22;10093;48.148;8.542;2023-05-20T01:42:01;9.20;99.90
19862;DHT22;10093;48.148;8.542;2023-05-20T01:44:28;9.20;99.90
19862;DHT22;10093;48.148;8.542;2023-05-20T01:46:54;9.20;99.90
19862;DHT22;10093;48.148;8.542;2023-05-20T01:49:19;9.50;99.90
19862;DHT22;10093;48.148;8.542;2023-05-20T01:51:45;9.30;99.90
19862;DHT22;10093;48.148;8.542;2023-05-20T01:54:11;9.30;99.90
19862;DHT22;10093;48.148;8.542;2023-05-20T01:56:36;9.30;99.90
19862;DHT22;10093;48.148;8.542;2023-05-20T01:59:02;9.50;99.90
19862;DHT22;10093;48.148;8.542;2023-05-20T02:01:27;9.30;99.90
19862;DHT22;10093;48.148;8.542;2023-05-20T02:03:53;9.30;99.90
19862;DHT22;10093;48.148;8.542;2023-05-20T02:06:19;9.20;99.90
19862;DHT22;10093;48.148;8.542;2023-05-20T02:08:44;9.20;99.90
19862;DHT22;10093;48.148;8.542;2023-05-20T02:11:10;9.20;99.90
19862;DHT22;10093;48.148;8.542;2023-05-20T02:13:35;9.10;99.90
19862;DHT22;10093;48.148;8.542;2023-05-20T02:16:01;9.20;99.90
19862;DHT22;10093;48.148;8.542;2023-05-20T02:18:27;9.20;99.90
19862;DHT22;10093;48.148;8.542;2023-05-20T02:20:52;9.20;99.90
19862;DHT22;10093;48.148;8.542;2023-05-20T02:23:18;9.20;99.90
19862;DHT22;10093;48.148;8.542;2023-05-20T02:25:44;9.30;99.90
19862;DHT22;10093;48.148;8.542;2023-05-20T02:28:09;9.40;99.90
19862;DHT22;10093;48.148;8.542;2023-05-20T02:30:38;9.50;99.90
19862;DHT22;10093;48.148;8.542;2023-05-20T02:33:04;9.50;99.90
19862;DHT22;10093;48.148;8.542;2023-05-20T02:35:31;9.50;99.90
19862;DHT22;10093;48.148;8.542;2023-05-20T02:37:57;9.50;99.90
19862;DHT22;10093;48.148;8.542;2023-05-20T02:40:22;9.50;99.90
19862;DHT22;10093;48.148;8.542;2023-05-20T02:42:48;9.40;99.90
19862;DHT22;10093;48.148;8.542;2023-05-20T02:45:13;9.50;99.90
19862;DHT22;10093;48.148;8.542;2023-05-20T02:47:39;9.40;99.90
19862;DHT22;10093;48.148;8.542;2023-05-20T02:50:05;9.60;99.90
19862;DHT22;10093;48.148;8.542;2023-05-20T02:52:31;9.80;99.90
19862;DHT22;10093;48.148;8.542;2023-05-20T02:54:57;10.00;99.90
19862;DHT22;10093;48.148;8.542;2023-05-20T02:57:22;9.90;99.90
19862;DHT22;10093;48.148;8.542;2023-05-20T02:59:48;9.80;99.90
19862;DHT22;10093;48.148;8.542;2023-05-20T03:02:14;9.80;99.90
19862;DHT22;10093;48.148;8.542;2023-05-20T03:04:39;10.00;99.90
19862;DHT22;10093;48.148;8.542;2023-05-20T03:07:06;10.00;99.90
19862;DHT22;10093;48.148;8.542;2023-05-20T03:09:34;10.00;99.90
19862;DHT22;10093;48.148;8.542;2023-05-20T03:12:00;10.10;99.90
19862;DHT22;10093;48.148;8.542;2023-05-20T03:14:25;10.20;99.90
19862;DHT22;10093;48.148;8.542;2023-05-20T03:16:52;10.20;99.90
19862;DHT22;10093;48.148;8.542;2023-05-20T03:19:20;10.10;99.90
19862;DHT22;10093;48.148;8.542;2023-05-20T03:21:46;10.20;99.90
19862;DHT22;10093;48.148;8.542;2023-05-20T03:24:11;10.20;99.90
19862;DHT22;10093;48.148;8.542;2023-05-20T03:26:37;10.20;99.90
19862;DHT22;10093;48.148;8.542;2023-05-20T03:29:08;10.20;99.90
19862;DHT22;10093;48.148;8.542;2023-05-20T03:31:34;10.00;99.90
19862;DHT22;10093;48.148;8.542;2023-05-20T03:33:59;10.00;99.90
19862;DHT22;10093;48.148;8.542;2023-05-20T03:36:26;10.10;99.90
19862;DHT22;10093;48.148;8.542;2023-05-20T03:38:52;10.10;99.90
19862;DHT22;10093;48.148;8.542;2023-05-20T03:41:18;10.00;99.90
19862;DHT22;10093;48.148;8.542;2023-05-20T03:43:49;10.00;99.90
19862;DHT22;10093;48.148;8.542;2023-05-20T03:46:17;10.00;99.90
19862;DHT22;10093;48.148;8.542;2023-05-20T03:48:43;10.10;99.90
19862;DHT22;10093;48.148;8.542;2023-05-20T03:51:08;10.00;99.90
19862;DHT22;10093;48.148;8.542;2023-05-20T03:53:34;10.00;99.90
19862;DHT22;10093;48.148;8.542;2023-05-20T03:55:59;10.20;99.90
19862;DHT22;10093;48.148;8.542;2023-05-20T03:58:25;10.20;99.90
19862;DHT22;10093;48.148;8.542;2023-05-20T04:00:53;10.10;99.90
19862;DHT22;10093;48.148;8.542;2023-05-20T04:03:19;10.20;99.90
19862;DHT22;10093;48.148;8.542;2023-05-20T04:05:45;10.10;99.90
19862;DHT22;10093;48.148;8.542;2023-05-20T04:08:10;10.10;99.90
19862;DHT22;10093;48.148;8.542;2023-05-20T04:10:40;10.00;99.90
19862;DHT22;10093;48.148;8.542;2023-05-20T04:13:07;9.90;99.90
19862;DHT22;10093;48.148;8.542;2023-05-20T04:15:35;9.80;99.90
19862;DHT22;10093;48.148;8.542;2023-05-20T04:18:01;9.90;99.90
19862;DHT22;10093;48.148;8.542;2023-05-20T04:20:27;10.10;99.90
19862;DHT22;10093;48.148;8.542;2023-05-20T04:22:53;10.10;99.90
19862;DHT22;10093;48.148;8.542;2023-05-20T04:25:19;10.10;99.90
19862;DHT22;10093;48.148;8.542;2023-05-20T04:27:46;10.00;99.90
19862;DHT22;10093;48.148;8.542;2023-05-20T04:30:12;9.90;99.90
19862;DHT22;10093;48.148;8.542;2023-05-20T04:32:38;10.00;99.90
19862;DHT22;10093;48.148;8.542;2023-05-20T04:35:04;10.10;99.90
19862;DHT22;10093;48.148;8.542;2023-05-20T04:37:36;10.00;99.90
19862;DHT22;10093;48.148;8.542;2023-05-20T04:40:02;10.00;99.90
19862;DHT22;10093;48.148;8.542;2023-05-20T04:42:33;9.90;99.90
19862;DHT22;10093;48.148;8.542;2023-05-20T04:44:59;9.90;99.90
19862;DHT22;10093;48.148;8.542;2023-05-20T04:47:27;9.90;99.90
19862;DHT22;10093;48.148;8.542;2023-05-20T04:49:54;9.90;99.90
19862;DHT22;10093;48.148;8.542;2023-05-20T04:52:22;10.00;99.90
19862;DHT22;10093;48.148;8.542;2023-05-20T04:54:48;9.90;99.90
19862;DHT22;10093;48.148;8.542;2023-05-20T04:57:15;10.20;99.90
19862;DHT22;10093;48.148;8.542;2023-05-20T04:59:41;10.40;99.90
19862;DHT22;10093;48.148;8.542;2023-05-20T05:02:07;10.20;99.90
19862;DHT22;10093;48.148;8.542;2023-05-20T05:04:33;10.30;99.90
19862;DHT22;10093;48.148;8.542;2023-05-20T05:06:58;10.30;99.90
19862;DHT22;10093;48.148;8.542;2023-05-20T05:09:24;10.40;99.90
19862;DHT22;10093;48.148;8.542;2023-05-20T05:11:50;10.40;99.90
19862;DHT22;10093;48.148;8.542;2023-05-20T05:14:16;10.40;99.90
19862;DHT22;10093;48.148;8.542;2023-05-20T05:16:41;10.60;99.90
19862;DHT22;10093;48.148;8.542;2023-05-20T05:19:07;10.80;99.90
19862;DHT22;10093;48.148;8.542;2023-05-20T05:21:33;10.40;99.90
19862;DHT22;10093;48.148;8.542;2023-05-20T05:23:59;10.50;99.90
19862;DHT22;10093;48.148;8.542;2023-05-20T05:26:24;10.30;99.90
19862;DHT22;10093;48.148;8.542;2023-05-20T05:28:53;10.20;99.90
19862;DHT22;10093;48.148;8.542;2023-05-20T05:31:19;10.30;99.90
19862;DHT22;10093;48.148;8.542;2023-05-20T05:33:44;10.20;99.90
19862;DHT22;10093;48.148;8.542;2023-05-20T05:36:10;10.30;99.90
19862;DHT22;10093;48.148;8.542;2023-05-20T05:38:36;10.50;99.90
19862;DHT22;10093;48.148;8.542;2023-05-20T05:41:01;10.70;99.90
19862;DHT22;10093;48.148;8.542;2023-05-20T05:43:27;10.70;99.90
19862;DHT22;10093;48.148;8.542;2023-05-20T05:45:53;10.70;99.90
19862;DHT22;10093;48.148;8.542;2023-05-20T05:48:18;10.50;99.90
19862;DHT22;10093;48.148;8.542;2023-05-20T05:50:44;10.50;99.90
19862;DHT22;10093;48.148;8.542;2023-05-20T05:53:11;10.50;99.90
19862;DHT22;10093;48.148;8.542;2023-05-20T05:55:36;10.90;99.90
19862;DHT22;10093;48.148;8.542;2023-05-20T05:58:02;10.90;99.90
19862;DHT22;10093;48.148;8.542;2023-05-20T06:00:27;11.10;99.90
19862;DHT22;10093;48.148;8.542;2023-05-20T06:02:54;11.10;99.90
19862;DHT22;10093;48.148;8.542;2023-05-20T06:05:20;11.00;99.90
19862;DHT22;10093;48.148;8.542;2023-05-20T06:07:46;11.10;99.90
19862;DHT22;10093;48.148;8.542;2023-05-20T06:10:11;11.10;99.90
19862;DHT22;10093;48.148;8.542;2023-05-20T06:12:37;10.90;99.90
19862;DHT22;10093;48.148;8.542;2023-05-20T06:15:03;10.60;99.90
19862;DHT22;10093;48.148;8.542;2023-05-20T06:17:28;10.50;99.90
19862;DHT22;10093;48.148;8.542;2023-05-20T06:19:54;10.30;99.90
19862;DHT22;10093;48.148;8.542;2023-05-20T06:22:20;10.30;99.90
19862;DHT22;10093;48.148;8.542;2023-05-20T06:24:45;10.60;99.90
19862;DHT22;10093;48.148;8.542;2023-05-20T06:27:11;10.80;99.90
19862;DHT22;10093;48.148;8.542;2023-05-20T06:29:37;11.10;99.90
19862;DHT22;10093;48.148;8.542;2023-05-20T06:32:02;11.20;99.90
19862;DHT22;10093;48.148;8.542;2023-05-20T06:34:28;10.90;99.90
19862;DHT22;10093;48.148;8.542;2023-05-20T06:36:54;10.90;99.90
19862;DHT22;10093;48.148;8.542;2023-05-20T06:39:20;10.50;99.90
19862;DHT22;10093;48.148;8.542;2023-05-20T06:41:46;10.80;99.90
19862;DHT22;10093;48.148;8.542;2023-05-20T06:44:11;10.80;99.90
19862;DHT22;10093;48.148;8.542;2023-05-20T06:46:37;10.80;99.90
19862;DHT22;10093;48.148;8.542;2023-05-20T06:49:03;10.90;99.90
19862;DHT22;10093;48.148;8.542;2023-05-20T06:51:28;11.30;99.90
19862;DHT22;10093;48.148;8.542;2023-05-20T06:53:54;11.10;99.90
19862;DHT22;10093;48.148;8.542;2023-05-20T06:56:19;11.20;99.90
19862;DHT22;10093;48.148;8.542;2023-05-20T06:58:46;11.40;99.90
19862;DHT22;10093;48.148;8.542;2023-05-20T07:01:11;11.70;99.90
19862;DHT22;10093;48.148;8.542;2023-05-20T07:03:37;11.60;99.90
19862;DHT22;10093;48.148;8.542;2023-05-20T07:06:03;11.30;99.90
19862;DHT22;10093;48.148;8.542;2023-05-20T07:08:28;11.70;99.90
19862;DHT22;10093;48.148;8.542;2023-05-20T07:10:55;12.00;99.90
19862;DHT22;10093;48.148;8.542;2023-05-20T07:13:21;12.20;99.90
19862;DHT22;10093;48.148;8.542;2023-05-20T07:15:48;11.70;99.90
19862;DHT22;10093;48.148;8.542;2023-05-20T07:18:14;11.80;99.90
19862;DHT22;10093;48.148;8.542;2023-05-20T07:20:40;12.00;99.90
19862;DHT22;10093;48.148;8.542;2023-05-20T07:23:06;12.00;99.90
19862;DHT22;10093;48.148;8.542;2023-05-20T07:25:32;12.20;99.90
19862;DHT22;10093;48.148;8.542;2023-05-20T07:27:57;12.50;99.90
19862;DHT22;10093;48.148;8.542;2023-05-20T07:30:25;12.70;99.90
19862;DHT22;10093;48.148;8.542;2023-05-20T07:32:51;12.80;99.90
19862;DHT22;10093;48.148;8.542;2023-05-20T07:35:16;13.30;99.90
19862;DHT22;10093;48.148;8.542;2023-05-20T07:37:42;13.00;99.90
19862;DHT22;10093;48.148;8.542;2023-05-20T07:40:08;13.30;99.90
19862;DHT22;10093;48.148;8.542;2023-05-20T07:42:34;13.70;99.90
19862;DHT22;10093;48.148;8.542;2023-05-20T07:44:59;14.00;99.90
19862;DHT22;10093;48.148;8.542;2023-05-20T07:47:25;13.40;99.90
19862;DHT22;10093;48.148;8.542;2023-05-20T07:49:51;13.70;99.90
19862;DHT22;10093;48.148;8.542;2023-05-20T07:52:17;13.60;99.90
19862;DHT22;10093;48.148;8.542;2023-05-20T07:54:42;13.00;99.90
19862;DHT22;10093;48.148;8.542;2023-05-20T07:57:08;13.50;99.90
19862;DHT22;10093;48.148;8.542;2023-05-20T07:59:33;13.50;99.90
19862;DHT22;10093;48.148;8.542;2023-05-20T08:01:59;13.10;99.90
19862;DHT22;10093;48.148;8.542;2023-05-20T08:04:25;12.90;99.90
19862;DHT22;10093;48.148;8.542;2023-05-20T08:06:52;13.30;99.90
19862;DHT22;10093;48.148;8.542;2023-05-20T08:09:18;13.70;99.90
19862;DHT22;10093;48.148;8.542;2023-05-20T08:11:44;13.40;99.90
19862;DHT22;10093;48.148;8.542;2023-05-20T08:14:09;13.20;99.90
19862;DHT22;10093;48.148;8.542;2023-05-20T08:16:35;13.80;99.90
19862;DHT22;10093;48.148;8.542;2023-05-20T08:19:02;13.80;99.90
19862;DHT22;10093;48.148;8.542;2023-05-20T08:21:27;14.40;99.90
19862;DHT22;10093;48.148;8.542;2023-05-20T08:23:53;14.00;99.90
19862;DHT22;10093;48.148;8.542;2023-05-20T08:26:19;14.00;99.90
19862;DHT22;10093;48.148;8.542;2023-05-20T08:28:46;14.20;99.90
19862;DHT22;10093;48.148;8.542;2023-05-20T08:31:12;14.20;99.90
19862;DHT22;10093;48.148;8.542;2023-05-20T08:33:38;14.90;99.90
19862;DHT22;10093;48.148;8.542;2023-05-20T08:36:04;15.30;99.90
19862;DHT22;10093;48.148;8.542;2023-05-20T08:38:30;14.60;99.90
19862;DHT22;10093;48.148;8.542;2023-05-20T08:40:57;14.40;99.90
19862;DHT22;10093;48.148;8.542;2023-05-20T08:43:23;15.10;99.90
19862;DHT22;10093;48.148;8.542;2023-05-20T08:45:49;14.80;99.90
19862;DHT22;10093;48.148;8.542;2023-05-20T08:48:17;14.60;99.90
19862;DHT22;10093;48.148;8.542;2023-05-20T08:50:45;14.70;99.90
19862;DHT22;10093;48.148;8.542;2023-05-20T08:53:14;15.90;99.90
19862;DHT22;10093;48.148;8.542;2023-05-20T08:55:51;15.60;99.90
19862;DHT22;10093;48.148;8.542;2023-05-20T08:58:18;16.50;99.90
19862;DHT22;10093;48.148;8.542;2023-05-20T09:00:44;16.60;99.90
19862;DHT22;10093;48.148;8.542;2023-05-20T09:03:09;17.60;99.90
19862;DHT22;10093;48.148;8.542;2023-05-20T09:05:35;17.00;99.90
19862;DHT22;10093;48.148;8.542;2023-05-20T09:08:05;17.60;99.90
19862;DHT22;10093;48.148;8.542;2023-05-20T09:10:32;18.40;99.90
19862;DHT22;10093;48.148;8.542;2023-05-20T09:13:00;19.00;99.90
19862;DHT22;10093;48.148;8.542;2023-05-20T09:15:26;19.50;99.90
19862;DHT22;10093;48.148;8.542;2023-05-20T09:17:52;18.70;99.90
19862;DHT22;10093;48.148;8.542;2023-05-20T09:20:21;17.40;99.90
19862;DHT22;10093;48.148;8.542;2023-05-20T09:22:50;17.70;99.90
19862;DHT22;10093;48.148;8.542;2023-05-20T09:25:21;17.10;99.90
19862;DHT22;10093;48.148;8.542;2023-05-20T09:27:48;17.20;99.90
19862;DHT22;10093;48.148;8.542;2023-05-20T09:30:17;16.70;99.90
19862;DHT22;10093;48.148;8.542;2023-05-20T09:32:43;17.10;99.90
19862;DHT22;10093;48.148;8.542;2023-05-20T09:35:12;17.90;99.90
19862;DHT22;10093;48.148;8.542;2023-05-20T09:37:39;17.80;99.90
19862;DHT22;10093;48.148;8.542;2023-05-20T09:40:08;18.40;99.90
19862;DHT22;10093;48.148;8.542;2023-05-20T09:42:53;18.70;99.90
19862;DHT22;10093;48.148;8.542;2023-05-20T09:45:21;18.70;99.90
19862;DHT22;10093;48.148;8.542;2023-05-20T09:47:52;19.70;99.90
19862;DHT22;10093;48.148;8.542;2023-05-20T09:50:19;19.00;99.90
19862;DHT22;10093;48.148;8.542;2023-05-20T09:52:49;19.30;99.90
19862;DHT22;10093;48.148;8.542;2023-05-20T09:55:16;20.40;99.90
19862;DHT22;10093;48.148;8.542;2023-05-20T09:57:42;21.30;99.90
19862;DHT22;10093;48.148;8.542;2023-05-20T10:00:08;21.80;99.90
19862;DHT22;10093;48.148;8.542;2023-05-20T10:02:36;21.90;99.90
19862;DHT22;10093;48.148;8.542;2023-05-20T10:05:05;20.50;99.90
19862;DHT22;10093;48.148;8.542;2023-05-20T10:08:13;21.00;99.90
19862;DHT22;10093;48.148;8.542;2023-05-20T10:10:48;20.50;99.90
19862;DHT22;10093;48.148;8.542;2023-05-20T10:15:57;20.10;99.90
19862;DHT22;10093;48.148;8.542;2023-05-20T10:21:21;22.10;99.90
19862;DHT22;10093;48.148;8.542;2023-05-20T10:23:49;22.20;99.90
19862;DHT22;10093;48.148;8.542;2023-05-20T10:26:15;21.70;99.90
19862;DHT22;10093;48.148;8.542;2023-05-20T10:28:42;19.80;99.90
19862;DHT22;10093;48.148;8.542;2023-05-20T10:31:21;19.80;99.90
19862;DHT22;10093;48.148;8.542;2023-05-20T10:33:47;19.70;99.90
19862;DHT22;10093;48.148;8.542;2023-05-20T10:36:27;19.90;99.90
19862;DHT22;10093;48.148;8.542;2023-05-20T10:38:57;18.90;99.90
19862;DHT22;10093;48.148;8.542;2023-05-20T10:41:26;18.60;99.90
19862;DHT22;10093;48.148;8.542;2023-05-20T10:44:02;19.30;99.90
19862;DHT22;10093;48.148;8.542;2023-05-20T10:46:29;18.80;99.90
19862;DHT22;10093;48.148;8.542;2023-05-20T10:48:55;18.50;99.90
19862;DHT22;10093;48.148;8.542;2023-05-20T10:51:22;18.90;99.90
19862;DHT22;10093;48.148;8.542;2023-05-20T10:53:51;19.30;99.90
19862;DHT22;10093;48.148;8.542;2023-05-20T10:56:25;19.10;99.90
19862;DHT22;10093;48.148;8.542;2023-05-20T10:58:52;19.60;99.90
19862;DHT22;10093;48.148;8.542;2023-05-20T11:01:25;18.40;99.90
19862;DHT22;10093;48.148;8.542;2023-05-20T11:03:53;18.60;99.90
19862;DHT22;10093;48.148;8.542;2023-05-20T11:06:25;18.50;99.90
19862;DHT22;10093;48.148;8.542;2023-05-20T11:08:52;19.10;99.90
19862;DHT22;10093;48.148;8.542;2023-05-20T11:11:18;21.10;99.90
19862;DHT22;10093;48.148;8.542;2023-05-20T11:13:44;22.10;99.90
19862;DHT22;10093;48.148;8.542;2023-05-20T11:16:14;20.90;99.90
19862;DHT22;10093;48.148;8.542;2023-05-20T11:18:40;22.20;99.90
19862;DHT22;10093;48.148;8.542;2023-05-20T11:21:05;21.20;99.90
19862;DHT22;10093;48.148;8.542;2023-05-20T11:23:31;20.90;99.90
19862;DHT22;10093;48.148;8.542;2023-05-20T11:25:57;20.40;99.90
19862;DHT22;10093;48.148;8.542;2023-05-20T11:28:23;20.90;99.90
19862;DHT22;10093;48.148;8.542;2023-05-20T11:30:54;22.50;99.90
19862;DHT22;10093;48.148;8.542;2023-05-20T11:33:20;21.90;99.90
19862;DHT22;10093;48.148;8.542;2023-05-20T11:35:51;20.80;99.90
19862;DHT22;10093;48.148;8.542;2023-05-20T11:38:17;21.50;99.90
19862;DHT22;10093;48.148;8.542;2023-05-20T11:40:44;21.80;99.90
19862;DHT22;10093;48.148;8.542;2023-05-20T11:43:12;23.20;99.90
19862;DHT22;10093;48.148;8.542;2023-05-20T11:45:39;24.10;99.90
19862;DHT22;10093;48.148;8.542;2023-05-20T11:48:06;23.80;99.90
19862;DHT22;10093;48.148;8.542;2023-05-20T11:50:39;22.40;99.90
19862;DHT22;10093;48.148;8.542;2023-05-20T11:53:23;22.70;99.90
19862;DHT22;10093;48.148;8.542;2023-05-20T11:55:58;23.20;99.90
19862;DHT22;10093;48.148;8.542;2023-05-20T11:58:26;22.20;99.90
19862;DHT22;10093;48.148;8.542;2023-05-20T12:00:53;21.50;99.90
19862;DHT22;10093;48.148;8.542;2023-05-20T12:03:19;21.80;99.90
19862;DHT22;10093;48.148;8.542;2023-05-20T12:05:45;23.30;99.90
19862;DHT22;10093;48.148;8.542;2023-05-20T12:08:12;25.20;99.90
19862;DHT22;10093;48.148;8.542;2023-05-20T12:10:38;24.70;99.90
19862;DHT22;10093;48.148;8.542;2023-05-20T12:13:04;23.30;99.90
19862;DHT22;10093;48.148;8.542;2023-05-20T12:15:34;24.00;99.90
19862;DHT22;10093;48.148;8.542;2023-05-20T12:18:00;25.10;99.90
19862;DHT22;10093;48.148;8.542;2023-05-20T12:20:26;24.40;99.90
19862;DHT22;10093;48.148;8.542;2023-05-20T12:22:51;23.70;99.90
19862;DHT22;10093;48.148;8.542;2023-05-20T12:25:18;24.90;99.90
19862;DHT22;10093;48.148;8.542;2023-05-20T12:27:45;23.20;99.90
19862;DHT22;10093;48.148;8.542;2023-05-20T12:30:17;22.90;99.90
19862;DHT22;10093;48.148;8.542;2023-05-20T12:32:43;23.40;99.90
19862;DHT22;10093;48.148;8.542;2023-05-20T12:35:10;23.20;99.90
19862;DHT22;10093;48.148;8.542;2023-05-20T12:37:39;22.60;99.90
19862;DHT22;10093;48.148;8.542;2023-05-20T12:40:07;23.30;99.90
19862;DHT22;10093;48.148;8.542;2023-05-20T12:42:34;23.80;99.90
19862;DHT22;10093;48.148;8.542;2023-05-20T12:45:00;24.10;99.90
19862;DHT22;10093;48.148;8.542;2023-05-20T12:47:26;24.00;99.90
19862;DHT22;10093;48.148;8.542;2023-05-20T12:49:52;23.10;99.90
19862;DHT22;10093;48.148;8.542;2023-05-20T12:52:18;23.10;99.90
19862;DHT22;10093;48.148;8.542;2023-05-20T12:54:44;22.60;99.90
19862;DHT22;10093;48.148;8.542;2023-05-20T12:57:09;23.10;99.90
19862;DHT22;10093;48.148;8.542;2023-05-20T12:59:35;21.70;99.90
19862;DHT22;10093;48.148;8.542;2023-05-20T13:02:01;21.80;99.90
19862;DHT22;10093;48.148;8.542;2023-05-20T13:04:26;20.90;99.90
19862;DHT22;10093;48.148;8.542;2023-05-20T13:06:52;20.00;99.90
19862;DHT22;10093;48.148;8.542;2023-05-20T13:09:18;20.50;99.90
19862;DHT22;10093;48.148;8.542;2023-05-20T13:11:43;21.50;99.90
19862;DHT22;10093;48.148;8.542;2023-05-20T13:14:09;21.00;99.90
19862;DHT22;10093;48.148;8.542;2023-05-20T13:16:35;19.40;99.90
19862;DHT22;10093;48.148;8.542;2023-05-20T13:19:00;19.00;99.90
19862;DHT22;10093;48.148;8.542;2023-05-20T13:21:26;19.90;99.90
19862;DHT22;10093;48.148;8.542;2023-05-20T13:23:52;19.50;99.90
19862;DHT22;10093;48.148;8.542;2023-05-20T13:26:18;20.10;99.90
19862;DHT22;10093;48.148;8.542;2023-05-20T13:28:43;20.70;99.90
19862;DHT22;10093;48.148;8.542;2023-05-20T13:31:09;20.40;99.90
19862;DHT22;10093;48.148;8.542;2023-05-20T13:33:34;20.60;99.90
19862;DHT22;10093;48.148;8.542;2023-05-20T13:36:01;21.00;99.90
19862;DHT22;10093;48.148;8.542;2023-05-20T13:38:26;21.20;99.90
19862;DHT22;10093;48.148;8.542;2023-05-20T13:40:52;20.60;99.90
19862;DHT22;10093;48.148;8.542;2023-05-20T13:43:18;20.50;99.90
19862;DHT22;10093;48.148;8.542;2023-05-20T13:45:43;20.70;99.90
19862;DHT22;10093;48.148;8.542;2023-05-20T13:48:09;20.80;99.90
19862;DHT22;10093;48.148;8.542;2023-05-20T13:50:35;21.20;99.90
19862;DHT22;10093;48.148;8.542;2023-05-20T13:53:01;21.40;99.90
19862;DHT22;10093;48.148;8.542;2023-05-20T13:55:26;22.10;99.90
19862;DHT22;10093;48.148;8.542;2023-05-20T13:57:52;21.60;99.90
19862;DHT22;10093;48.148;8.542;2023-05-20T14:00:19;21.60;99.90
19862;DHT22;10093;48.148;8.542;2023-05-20T14:02:45;22.20;99.90
19862;DHT22;10093;48.148;8.542;2023-05-20T14:05:11;21.60;99.90
19862;DHT22;10093;48.148;8.542;2023-05-20T14:07:37;21.80;99.90
19862;DHT22;10093;48.148;8.542;2023-05-20T14:10:04;21.30;99.90
19862;DHT22;10093;48.148;8.542;2023-05-20T14:12:30;21.30;99.90
19862;DHT22;10093;48.148;8.542;2023-05-20T14:14:55;21.10;99.90
19862;DHT22;10093;48.148;8.542;2023-05-20T14:17:22;20.90;99.90
19862;DHT22;10093;48.148;8.542;2023-05-20T14:19:47;20.80;99.90
19862;DHT22;10093;48.148;8.542;2023-05-20T14:22:13;20.40;99.90
19862;DHT22;10093;48.148;8.542;2023-05-20T14:24:39;20.80;99.90
19862;DHT22;10093;48.148;8.542;2023-05-20T14:27:05;21.30;99.90
19862;DHT22;10093;48.148;8.542;2023-05-20T14:29:31;21.00;99.90
19862;DHT22;10093;48.148;8.542;2023-05-20T14:31:57;20.50;99.90
19862;DHT22;10093;48.148;8.542;2023-05-20T14:34:22;20.20;99.90
19862;DHT22;10093;48.148;8.542;2023-05-20T14:36:48;20.60;99.90
19862;DHT22;10093;48.148;8.542;2023-05-20T14:39:14;20.90;99.90
19862;DHT22;10093;48.148;8.542;2023-05-20T14:41:39;21.10;99.90
19862;DHT22;10093;48.148;8.542;2023-05-20T14:44:05;21.20;99.90
19862;DHT22;10093;48.148;8.542;2023-05-20T14:46:31;21.10;99.90
19862;DHT22;10093;48.148;8.542;2023-05-20T14:48:56;21.60;99.90
19862;DHT22;10093;48.148;8.542;2023-05-20T14:51:22;22.00;99.90
19862;DHT22;10093;48.148;8.542;2023-05-20T14:53:48;21.80;99.90
19862;DHT22;10093;48.148;8.542;2023-05-20T14:56:13;21.90;99.90
19862;DHT22;10093;48.148;8.542;2023-05-20T14:58:39;21.60;99.90
19862;DHT22;10093;48.148;8.542;2023-05-20T15:01:05;20.80;99.90
19862;DHT22;10093;48.148;8.542;2023-05-20T15:03:31;20.80;99.90
19862;DHT22;10093;48.148;8.542;2023-05-20T15:05:56;21.20;99.90
19862;DHT22;10093;48.148;8.542;2023-05-20T15:08:22;21.20;99.90
19862;DHT22;10093;48.148;8.542;2023-05-20T15:10:48;20.90;99.90
19862;DHT22;10093;48.148;8.542;2023-05-20T15:13:14;20.60;99.90
19862;DHT22;10093;48.148;8.542;2023-05-20T15:15:40;20.50;99.90
19862;DHT22;10093;48.148;8.542;2023-05-20T15:18:05;20.40;99.90
19862;DHT22;10093;48.148;8.542;2023-05-20T15:20:31;20.20;99.90
19862;DHT22;10093;48.148;8.542;2023-05-20T15:22:57;20.90;99.90
19862;DHT22;10093;48.148;8.542;2023-05-20T15:25:22;21.40;99.90
19862;DHT22;10093;48.148;8.542;2023-05-20T15:27:48;21.20;99.90
19862;DHT22;10093;48.148;8.542;2023-05-20T15:30:14;21.20;99.90
19862;DHT22;10093;48.148;8.542;2023-05-20T15:32:40;21.10;99.90
19862;DHT22;10093;48.148;8.542;2023-05-20T15:35:07;21.10;99.90